createdAt,value
2023-01-25T00:00:28.719Z,26.57
2023-01-25T00:02:56.044Z,22.67
2023-01-25T00:05:23.314Z,25.87
2023-01-25T00:07:50.550Z,23.60
2023-01-25T00:10:18.115Z,25.17
2023-01-25T00:12:46.072Z,26.23
2023-01-25T00:15:13.528Z,22.97
2023-01-25T00:17:40.847Z,25.37
2023-01-25T00:20:09.428Z,26.23
2023-01-25T00:22:36.719Z,25.13
2023-01-25T00:25:04.389Z,25.93
2023-01-25T00:27:31.711Z,22.90
2023-01-25T00:30:17.717Z,22.30
2023-01-25T00:33:24.147Z,22.70
2023-01-25T00:35:51.496Z,19.80
2023-01-25T00:38:30.086Z,15.73
2023-01-25T00:40:58.329Z,20.40
2023-01-25T00:43:25.444Z,19.10
2023-01-25T00:45:59.696Z,19.83
2023-01-25T00:48:26.882Z,21.17
2023-01-25T00:50:53.948Z,21.87
2023-01-25T00:53:21.242Z,21.30
2023-01-25T00:55:52.518Z,21.87
2023-01-25T00:58:19.791Z,19.60
2023-01-25T01:00:47.106Z,16.63
2023-01-25T01:03:15.624Z,18.50
2023-01-25T01:05:42.715Z,14.27
2023-01-25T01:08:10.077Z,17.37
2023-01-25T01:10:37.142Z,16.00
2023-01-25T01:13:04.266Z,15.10
2023-01-25T01:15:31.539Z,15.30
2023-01-25T01:17:58.621Z,18.23
2023-01-25T01:20:26.589Z,11.07
2023-01-25T01:22:54.806Z,15.00
2023-01-25T01:25:22.187Z,17.27
2023-01-25T01:27:49.505Z,15.20
2023-01-25T01:30:17.328Z,15.37
2023-01-25T01:32:44.674Z,14.07
2023-01-25T01:35:12.200Z,15.50
2023-01-25T01:37:42.908Z,16.17
2023-01-25T01:40:15.590Z,15.40
2023-01-25T01:42:59.906Z,16.80
2023-01-25T01:45:52.133Z,16.40
2023-01-25T01:48:28.610Z,18.00
2023-01-25T01:50:59.910Z,16.90
2023-01-25T01:53:29.765Z,18.50
2023-01-25T01:56:01.028Z,17.50
2023-01-25T01:58:28.871Z,17.80
2023-01-25T02:00:56.199Z,16.93
2023-01-25T02:03:24.170Z,18.47
2023-01-25T02:05:55.672Z,18.00
2023-01-25T02:08:26.317Z,13.23
2023-01-25T02:10:54.402Z,15.07
2023-01-25T02:13:22.300Z,14.87
2023-01-25T02:15:51.792Z,15.50
2023-01-25T02:18:19.789Z,17.47
2023-01-25T02:20:50.158Z,16.57
2023-01-25T02:23:24.431Z,19.57
2023-01-25T02:25:52.441Z,9.70
2023-01-25T02:28:23.293Z,15.30
2023-01-25T02:30:50.701Z,15.50
2023-01-25T02:33:18.032Z,15.60
2023-01-25T02:35:48.092Z,12.20
2023-01-25T02:38:17.988Z,15.87
2023-01-25T02:40:49.093Z,13.57
2023-01-25T02:43:17.826Z,13.80
2023-01-25T02:45:49.203Z,14.23
2023-01-25T02:48:16.572Z,14.07
2023-01-25T02:50:44.464Z,13.30
2023-01-25T02:53:11.755Z,12.87
2023-01-25T02:55:38.998Z,9.90
2023-01-25T02:58:06.292Z,12.73
2023-01-25T03:00:34.228Z,14.03
2023-01-25T03:03:01.538Z,12.53
2023-01-25T03:05:28.761Z,13.10
2023-01-25T03:07:56.010Z,13.47
2023-01-25T03:10:23.294Z,13.33
2023-01-25T03:12:50.661Z,12.40
2023-01-25T03:15:18.036Z,13.87
2023-01-25T03:17:45.969Z,14.83
2023-01-25T03:20:13.418Z,14.23
2023-01-25T03:22:40.657Z,15.73
2023-01-25T03:25:09.212Z,13.80
2023-01-25T03:27:36.691Z,15.60
2023-01-25T03:30:05.088Z,16.50
2023-01-25T03:32:32.399Z,14.93
2023-01-25T03:35:00.447Z,16.00
2023-01-25T03:37:30.404Z,16.23
2023-01-25T03:39:57.889Z,17.10
2023-01-25T03:42:25.262Z,14.67
2023-01-25T03:44:52.488Z,14.40
2023-01-25T03:47:19.739Z,13.60
2023-01-25T03:49:46.999Z,12.67
2023-01-25T03:52:14.950Z,17.40
2023-01-25T03:54:42.241Z,13.70
2023-01-25T03:57:09.577Z,18.80
2023-01-25T03:59:36.824Z,16.10
2023-01-25T04:02:04.238Z,13.70
2023-01-25T04:04:31.613Z,15.23
2023-01-25T04:06:58.852Z,16.00
2023-01-25T04:09:27.022Z,15.33
2023-01-25T04:11:54.276Z,12.47
2023-01-25T04:14:35.030Z,14.80
2023-01-25T04:17:10.149Z,12.77
2023-01-25T04:19:37.360Z,14.80
2023-01-25T04:22:04.629Z,14.10
2023-01-25T04:24:32.626Z,13.60
2023-01-25T04:26:59.896Z,16.87
2023-01-25T04:29:40.101Z,17.70
2023-01-25T04:32:08.836Z,14.63
2023-01-25T04:34:36.556Z,17.40
2023-01-25T04:37:03.899Z,27.20
2023-01-25T04:39:31.905Z,16.47
2023-01-25T04:41:59.193Z,11.80
2023-01-25T04:44:26.487Z,22.13
2023-01-25T04:46:53.827Z,26.80
2023-01-25T04:49:21.063Z,11.60
2023-01-25T04:51:48.364Z,12.43
2023-01-25T04:54:15.767Z,21.60
2023-01-25T04:56:43.674Z,21.60
2023-01-25T04:59:11.435Z,18.27
2023-01-25T05:01:38.770Z,15.10
2023-01-25T05:04:06.128Z,16.53
2023-01-25T05:06:33.401Z,15.73
2023-01-25T05:09:00.664Z,15.43
2023-01-25T05:11:27.924Z,17.27
2023-01-25T05:13:55.863Z,19.30
2023-01-25T05:16:23.143Z,15.83
2023-01-25T05:18:50.452Z,15.33
2023-01-25T05:21:35.932Z,16.70
2023-01-25T05:24:03.429Z,19.63
2023-01-25T05:26:48.540Z,15.70
2023-01-25T05:29:16.556Z,38.27
2023-01-25T05:31:43.847Z,32.77
2023-01-25T05:34:11.174Z,27.07
2023-01-25T05:36:38.434Z,33.17
2023-01-25T05:39:06.108Z,23.77
2023-01-25T05:41:33.355Z,16.73
2023-01-25T05:44:00.932Z,19.47
2023-01-25T05:46:29.115Z,25.63
2023-01-25T05:48:56.662Z,32.17
2023-01-25T05:51:24.109Z,16.47
2023-01-25T05:53:53.837Z,29.50
2023-01-25T05:56:21.188Z,17.10
2023-01-25T05:58:52.029Z,16.37
2023-01-25T06:01:19.240Z,24.77
2023-01-25T06:03:47.366Z,17.10
2023-01-25T06:06:14.880Z,17.30
2023-01-25T06:08:42.213Z,15.13
2023-01-25T06:11:11.012Z,14.73
2023-01-25T06:13:38.822Z,13.40
2023-01-25T06:16:06.986Z,18.20
2023-01-25T06:18:35.412Z,16.67
2023-01-25T06:21:04.564Z,14.47
2023-01-25T06:23:32.336Z,15.43
2023-01-25T06:26:00.570Z,13.83
2023-01-25T06:28:31.415Z,13.57
2023-01-25T06:31:05.194Z,17.03
2023-01-25T06:33:32.829Z,14.80
2023-01-25T06:36:02.085Z,16.47
2023-01-25T06:38:29.421Z,13.83
2023-01-25T06:41:00.132Z,17.40
2023-01-25T06:43:27.706Z,15.20
2023-01-25T06:45:58.816Z,17.50
2023-01-25T06:48:26.567Z,17.90
2023-01-25T06:50:58.992Z,16.10
2023-01-25T06:53:28.735Z,19.53
2023-01-25T06:56:00.417Z,18.27
2023-01-25T06:58:28.661Z,21.17
2023-01-25T07:01:00.821Z,21.13
2023-01-25T07:03:28.426Z,17.53
2023-01-25T07:05:58.741Z,17.03
2023-01-25T07:08:26.703Z,15.70
2023-01-25T07:10:55.296Z,17.20
2023-01-25T07:13:22.673Z,14.37
2023-01-25T07:15:54.299Z,14.17
2023-01-25T07:18:21.793Z,14.70
2023-01-25T07:20:49.244Z,15.70
2023-01-25T07:23:16.537Z,22.00
2023-01-25T07:25:49.322Z,13.47
2023-01-25T07:28:17.232Z,26.90
2023-01-25T07:30:44.868Z,15.30
2023-01-25T07:33:12.415Z,14.27
2023-01-25T07:35:39.706Z,15.23
2023-01-25T07:38:07.234Z,15.70
2023-01-25T07:40:34.657Z,15.47
2023-01-25T07:43:02.704Z,18.60
2023-01-25T07:45:30.591Z,15.97
2023-01-25T07:47:59.298Z,15.90
2023-01-25T07:50:27.411Z,17.27
2023-01-25T07:52:54.745Z,15.93
2023-01-25T07:55:22.450Z,15.23
2023-01-25T07:57:53.612Z,17.70
2023-01-25T08:00:23.980Z,17.10
2023-01-25T08:02:52.492Z,16.53
2023-01-25T08:05:19.974Z,16.57
2023-01-25T08:07:47.960Z,16.80
2023-01-25T08:10:15.481Z,18.27
2023-01-25T08:12:46.026Z,20.40
2023-01-25T08:15:13.529Z,20.30
2023-01-25T08:17:41.504Z,19.60
2023-01-25T08:20:10.064Z,20.40
2023-01-25T08:22:37.302Z,24.20
2023-01-25T08:25:05.354Z,18.60
2023-01-25T08:27:32.569Z,17.63
2023-01-25T08:29:59.912Z,15.90
2023-01-25T08:32:27.199Z,15.10
2023-01-25T08:34:55.173Z,14.77
2023-01-25T08:37:22.468Z,15.47
2023-01-25T08:39:49.741Z,16.77
2023-01-25T08:42:16.960Z,15.87
2023-01-25T08:44:44.233Z,16.63
2023-01-25T08:47:11.495Z,15.53
2023-01-25T08:49:38.746Z,18.00
2023-01-25T08:52:06.655Z,19.00
2023-01-25T08:54:33.957Z,17.10
2023-01-25T08:57:01.805Z,19.90
2023-01-25T08:59:29.296Z,20.23
2023-01-25T09:01:56.523Z,27.00
2023-01-25T09:04:27.613Z,20.77
2023-01-25T09:06:54.918Z,19.83
2023-01-25T09:09:24.294Z,18.60
2023-01-25T09:11:51.556Z,16.63
2023-01-25T09:14:18.825Z,17.53
2023-01-25T09:16:46.058Z,17.20
2023-01-25T09:19:13.507Z,17.00
2023-01-25T09:21:41.067Z,18.23
2023-01-25T09:24:08.894Z,17.80
2023-01-25T09:26:38.850Z,18.30
2023-01-25T09:29:07.159Z,16.97
2023-01-25T09:31:35.065Z,17.30
2023-01-25T09:34:02.776Z,16.60
2023-01-25T09:36:30.033Z,17.97
2023-01-25T09:38:57.721Z,18.80
2023-01-25T09:41:54.760Z,21.67
2023-01-25T09:44:38.870Z,23.27
2023-01-25T09:47:17.403Z,19.77
2023-01-25T09:50:00.162Z,23.00
2023-01-25T09:52:50.083Z,21.30
2023-01-25T09:55:21.675Z,24.63
2023-01-25T09:57:53.240Z,19.30
2023-01-25T10:00:26.543Z,20.73
2023-01-25T10:02:58.141Z,18.67
2023-01-25T10:05:30.786Z,19.57
2023-01-25T10:08:02.158Z,18.13
2023-01-25T10:10:35.292Z,19.37
2023-01-25T10:13:02.992Z,23.00
2023-01-25T10:15:34.715Z,23.60
2023-01-25T10:18:09.793Z,20.77
2023-01-25T10:20:43.844Z,19.00
2023-01-25T10:23:32.561Z,18.93
2023-01-25T10:26:01.019Z,16.07
2023-01-25T10:28:39.336Z,18.03
2023-01-25T10:31:14.864Z,19.00
2023-01-25T10:33:44.917Z,16.43
2023-01-25T10:36:14.964Z,20.87
2023-01-25T10:38:44.672Z,20.40
2023-01-25T10:41:18.258Z,17.73
2023-01-25T10:43:45.682Z,17.73
2023-01-25T10:46:21.343Z,18.90
2023-01-25T10:48:48.666Z,16.90
2023-01-25T10:51:31.120Z,14.97
2023-01-25T10:54:03.528Z,16.57
2023-01-25T10:56:33.962Z,14.33
2023-01-25T10:59:15.986Z,17.43
2023-01-25T11:01:44.125Z,13.43
2023-01-25T11:04:34.409Z,11.37
2023-01-25T11:07:02.898Z,13.47
2023-01-25T11:09:35.741Z,10.77
2023-01-25T11:12:06.659Z,11.00
2023-01-25T11:14:34.442Z,11.63
2023-01-25T11:17:05.191Z,13.30
2023-01-25T11:19:34.862Z,12.60
2023-01-25T11:22:04.440Z,11.33
2023-01-25T11:24:32.734Z,12.77
2023-01-25T11:27:17.971Z,11.33
2023-01-25T11:29:46.457Z,12.33
2023-01-25T11:32:21.760Z,10.90
2023-01-25T11:34:50.404Z,10.33
2023-01-25T11:37:32.557Z,9.17
2023-01-25T11:40:12.357Z,13.00
2023-01-25T11:42:47.746Z,11.03
2023-01-25T11:45:55.610Z,11.10
2023-01-25T11:48:46.389Z,12.93
2023-01-25T11:51:26.177Z,11.47
2023-01-25T11:54:16.381Z,11.37
2023-01-25T11:56:54.552Z,11.90
2023-01-25T11:59:45.688Z,12.00
2023-01-25T12:02:31.896Z,14.00
2023-01-25T12:05:31.319Z,12.70
2023-01-25T12:08:12.040Z,11.43
2023-01-25T12:10:50.073Z,13.67
2023-01-25T12:13:24.076Z,11.27
2023-01-25T12:16:12.895Z,10.60
2023-01-25T12:19:13.242Z,13.30
2023-01-25T12:22:00.061Z,10.40
2023-01-25T12:24:40.686Z,12.43
2023-01-25T12:27:18.955Z,10.60
2023-01-25T12:29:51.336Z,8.70
2023-01-25T12:32:23.777Z,13.77
2023-01-25T12:34:57.565Z,13.23
2023-01-25T12:37:31.876Z,11.20
2023-01-25T12:40:02.732Z,12.80
2023-01-25T12:42:35.947Z,9.13
2023-01-25T12:45:10.301Z,14.30
2023-01-25T12:47:41.775Z,14.10
2023-01-25T12:50:16.941Z,9.87
2023-01-25T12:52:51.108Z,11.00
2023-01-25T12:55:19.294Z,12.30
2023-01-25T12:57:56.238Z,11.60
2023-01-25T13:00:30.370Z,11.73
2023-01-25T13:03:16.534Z,13.10
2023-01-25T13:05:50.878Z,10.40
2023-01-25T13:08:31.788Z,9.73
2023-01-25T13:11:11.847Z,9.20
2023-01-25T13:16:42.440Z,10.43
2023-01-25T13:19:38.327Z,10.57
2023-01-25T13:22:05.973Z,10.93
2023-01-25T13:24:54.755Z,10.77
2023-01-25T13:27:27.175Z,8.57
2023-01-25T13:29:59.051Z,11.50
2023-01-25T13:33:06.272Z,13.33
2023-01-25T13:35:46.531Z,13.07
2023-01-25T13:38:35.000Z,12.97
2023-01-25T13:41:16.026Z,12.73
2023-01-25T13:43:47.416Z,12.40
2023-01-25T13:46:18.793Z,11.73
2023-01-25T13:48:59.547Z,12.20
2023-01-25T13:51:30.554Z,12.70
2023-01-25T13:53:59.354Z,11.43
2023-01-25T13:56:30.522Z,11.60
2023-01-25T13:58:57.995Z,11.10
2023-01-25T14:01:26.410Z,11.80
2023-01-25T14:03:58.787Z,12.53
2023-01-25T14:06:29.425Z,12.30
2023-01-25T14:08:59.511Z,11.07
2023-01-25T14:11:29.523Z,10.67
2023-01-25T14:13:58.895Z,12.20
2023-01-25T14:16:29.150Z,11.77
2023-01-25T14:18:58.435Z,9.70
2023-01-25T14:21:25.815Z,12.27
2023-01-25T14:23:53.158Z,13.43
2023-01-25T14:26:23.673Z,15.27
2023-01-25T14:29:01.167Z,14.00
2023-01-25T14:31:33.406Z,10.70
2023-01-25T14:34:03.399Z,13.10
2023-01-25T14:36:33.467Z,13.07
2023-01-25T14:39:02.525Z,12.17
2023-01-25T14:41:34.207Z,11.70
2023-01-25T14:44:04.743Z,11.73
2023-01-25T14:46:34.053Z,12.10
2023-01-25T14:49:24.368Z,10.00
2023-01-25T14:51:57.418Z,13.40
2023-01-25T14:54:27.244Z,12.43
2023-01-25T14:56:56.937Z,12.90
2023-01-25T14:59:32.212Z,12.33
2023-01-25T15:02:02.415Z,11.60
2023-01-25T15:04:30.869Z,11.40
2023-01-25T15:07:01.102Z,12.63
2023-01-25T15:09:36.254Z,13.60
2023-01-25T15:12:05.835Z,15.13
2023-01-25T15:14:46.814Z,14.43
2023-01-25T15:17:39.065Z,14.57
2023-01-25T15:20:26.846Z,14.90
2023-01-25T15:22:55.668Z,16.63
2023-01-25T15:25:24.216Z,13.10
2023-01-25T15:27:52.259Z,15.30
2023-01-25T15:30:20.601Z,13.77
2023-01-25T15:32:48.464Z,13.77
2023-01-25T15:35:18.392Z,12.33
2023-01-25T15:37:48.341Z,13.63
2023-01-25T15:40:17.115Z,13.97
2023-01-25T15:42:44.429Z,13.23
2023-01-25T15:45:11.999Z,11.67
2023-01-25T15:47:40.025Z,13.80
2023-01-25T15:50:17.922Z,14.70
2023-01-25T15:52:45.242Z,12.97
2023-01-25T15:55:13.879Z,12.93
2023-01-25T15:57:42.791Z,12.50
2023-01-25T16:00:18.048Z,14.90
2023-01-25T16:02:46.440Z,13.90
2023-01-25T16:05:13.838Z,19.33
2023-01-25T16:07:43.796Z,14.47
2023-01-25T16:10:20.706Z,16.43
2023-01-25T16:12:48.315Z,17.03
2023-01-25T16:15:15.773Z,17.60
2023-01-25T16:17:43.348Z,15.40
2023-01-25T16:20:18.183Z,14.13
2023-01-25T16:22:45.833Z,13.40
2023-01-25T16:25:13.684Z,16.50
2023-01-25T16:27:40.938Z,16.77
2023-01-25T16:30:17.945Z,13.67
2023-01-25T16:32:46.003Z,16.00
2023-01-25T16:35:14.359Z,17.90
2023-01-25T16:37:41.935Z,15.43
2023-01-25T16:40:21.397Z,17.87
2023-01-25T16:42:48.855Z,18.63
2023-01-25T16:45:18.567Z,17.30
2023-01-25T16:47:46.211Z,14.97
2023-01-25T16:50:15.470Z,15.53
2023-01-25T16:52:44.259Z,12.30
2023-01-25T16:55:12.652Z,13.20
2023-01-25T16:57:40.332Z,11.90
2023-01-25T17:00:10.390Z,12.30
2023-01-25T17:02:40.076Z,13.80
2023-01-25T17:05:10.504Z,11.70
2023-01-25T17:07:38.468Z,13.00
2023-01-25T17:10:07.695Z,12.73
2023-01-25T17:12:35.216Z,12.47
2023-01-25T17:15:03.492Z,14.03
2023-01-25T17:17:31.049Z,14.93
2023-01-25T17:19:58.326Z,14.43
2023-01-25T17:22:25.586Z,15.87
2023-01-25T17:24:55.011Z,15.20
2023-01-25T17:27:23.454Z,13.90
2023-01-25T17:29:50.772Z,15.37
2023-01-25T17:32:18.057Z,14.47
2023-01-25T17:34:45.415Z,16.37
2023-01-25T17:37:12.679Z,16.30
2023-01-25T17:39:39.960Z,19.83
2023-01-25T17:42:10.245Z,19.20
2023-01-25T17:44:37.509Z,19.10
2023-01-25T17:47:04.854Z,20.30
2023-01-25T17:49:32.138Z,20.93
2023-01-25T17:52:01.435Z,15.40
2023-01-25T17:54:28.682Z,19.93
2023-01-25T17:56:55.953Z,18.27
2023-01-25T17:59:24.207Z,18.80
2023-01-25T18:01:51.504Z,17.50
2023-01-25T18:04:19.708Z,18.47
2023-01-25T18:06:47.189Z,15.93
2023-01-25T18:09:14.584Z,17.10
2023-01-25T18:11:41.843Z,18.37
2023-01-25T18:14:14.458Z,20.10
2023-01-25T18:16:43.179Z,19.43
2023-01-25T18:19:10.899Z,20.50
2023-01-25T18:21:39.953Z,20.53
2023-01-25T18:24:24.966Z,18.83
2023-01-25T18:26:54.493Z,18.10
2023-01-25T18:29:39.918Z,19.17
2023-01-25T18:32:08.130Z,18.47
2023-01-25T18:34:35.472Z,19.07
2023-01-25T18:37:16.985Z,19.57
2023-01-25T18:39:44.516Z,16.97
2023-01-25T18:42:11.756Z,20.93
2023-01-25T18:44:39.047Z,15.70
2023-01-25T18:47:13.032Z,19.27
2023-01-25T18:49:40.619Z,18.07
2023-01-25T18:52:11.619Z,17.60
2023-01-25T18:54:39.145Z,18.90
2023-01-25T18:57:06.970Z,19.40
2023-01-25T18:59:34.237Z,19.70
2023-01-25T19:02:01.594Z,16.80
2023-01-25T19:04:29.854Z,19.70
2023-01-25T19:06:58.033Z,18.40
2023-01-25T19:09:26.843Z,19.43
2023-01-25T19:11:54.558Z,17.97
2023-01-25T19:14:22.139Z,21.80
2023-01-25T19:16:49.427Z,19.77
2023-01-25T19:19:16.991Z,21.10
2023-01-25T19:21:45.154Z,21.83
2023-01-25T19:24:14.233Z,26.27
2023-01-25T19:26:41.889Z,22.67
2023-01-25T19:29:09.733Z,21.43
2023-01-25T19:31:37.195Z,21.27
2023-01-25T19:34:06.099Z,24.50
2023-01-25T19:36:35.805Z,22.37
2023-01-25T19:39:09.056Z,23.20
2023-01-25T19:41:38.211Z,24.17
2023-01-25T19:44:06.146Z,25.43
2023-01-25T19:46:34.876Z,23.13
2023-01-25T19:49:04.296Z,16.13
2023-01-25T19:51:33.340Z,17.53
2023-01-25T19:54:02.978Z,21.67
2023-01-25T19:56:32.819Z,22.57
2023-01-25T19:59:01.653Z,21.53
2023-01-25T20:01:29.597Z,24.07
2023-01-25T20:03:58.205Z,20.87
2023-01-25T20:06:26.374Z,23.97
2023-01-25T20:08:54.350Z,24.90
2023-01-25T20:11:24.615Z,21.80
2023-01-25T20:13:53.965Z,30.20
2023-01-25T20:16:21.786Z,30.67
2023-01-25T20:18:49.821Z,20.67
2023-01-25T20:21:18.824Z,71.27
2023-01-25T20:23:48.132Z,31.33
2023-01-25T20:26:17.478Z,39.03
2023-01-25T20:28:47.073Z,25.30
2023-01-25T20:31:22.103Z,27.33
2023-01-25T20:33:50.699Z,21.80
2023-01-25T20:36:18.140Z,68.43
2023-01-25T20:38:45.863Z,32.90
2023-01-25T20:41:14.956Z,24.77
2023-01-25T20:43:46.994Z,19.47
2023-01-25T20:46:14.656Z,24.00
2023-01-25T20:48:42.269Z,23.90
2023-01-25T20:51:12.424Z,19.23
2023-01-25T20:53:41.294Z,19.80
2023-01-25T20:56:09.366Z,21.87
2023-01-25T20:58:37.311Z,18.10
2023-01-25T21:01:14.838Z,25.27
2023-01-25T21:03:42.154Z,20.97
2023-01-25T21:06:09.907Z,21.77
2023-01-25T21:08:37.269Z,22.77
2023-01-25T21:11:04.968Z,23.57
2023-01-25T21:13:32.447Z,25.60
2023-01-25T21:16:00.933Z,25.03
2023-01-25T21:18:30.553Z,19.50
2023-01-25T21:21:05.818Z,24.50
2023-01-25T21:23:33.716Z,21.00
2023-01-25T21:26:01.639Z,20.80
2023-01-25T21:28:29.083Z,24.30
2023-01-25T21:30:56.510Z,22.23
2023-01-25T21:33:24.246Z,25.27
2023-01-25T21:35:54.454Z,21.07
2023-01-25T21:38:24.127Z,19.30
2023-01-25T21:40:51.535Z,24.87
2023-01-25T21:43:18.746Z,25.57
2023-01-25T21:46:04.119Z,24.87
2023-01-25T21:48:49.609Z,27.93
2023-01-25T21:51:35.546Z,23.10
2023-01-25T21:54:02.988Z,21.80
2023-01-25T21:56:30.534Z,35.00
2023-01-25T21:58:57.808Z,28.13
2023-01-25T22:01:25.108Z,23.27
2023-01-25T22:03:52.521Z,25.70
2023-01-25T22:06:20.539Z,24.00
2023-01-25T22:08:47.890Z,25.60
2023-01-25T22:11:15.269Z,23.60
2023-01-25T22:13:42.599Z,18.60
2023-01-25T22:16:10.794Z,23.60
2023-01-25T22:18:39.864Z,28.07
2023-01-25T22:21:12.885Z,25.83
2023-01-25T22:23:40.860Z,24.90
2023-01-25T22:26:10.663Z,27.10
2023-01-25T22:28:44.489Z,27.27
2023-01-25T22:31:11.898Z,29.70
2023-01-25T22:33:39.160Z,24.13
2023-01-25T22:36:06.985Z,27.03
2023-01-25T22:38:34.442Z,23.83
2023-01-25T22:41:07.407Z,25.23
2023-01-25T22:43:34.888Z,24.10
2023-01-25T22:46:02.587Z,29.97
2023-01-25T22:48:30.246Z,28.60
2023-01-25T22:51:01.694Z,27.37
2023-01-25T22:53:29.757Z,26.57
2023-01-25T22:56:01.067Z,28.90
2023-01-25T22:58:29.453Z,26.17
2023-01-25T23:00:56.978Z,27.37
2023-01-25T23:03:24.474Z,25.87
2023-01-25T23:05:59.517Z,26.50
2023-01-25T23:08:28.464Z,28.67
2023-01-25T23:11:00.173Z,23.67
2023-01-25T23:13:28.763Z,17.40
2023-01-25T23:16:00.508Z,24.50
2023-01-25T23:18:45.951Z,21.73
2023-01-25T23:21:13.455Z,23.90
2023-01-25T23:23:40.678Z,26.70
2023-01-25T23:26:08.261Z,27.37
2023-01-25T23:28:38.568Z,25.07
2023-01-25T23:31:21.013Z,26.00
2023-01-25T23:33:50.251Z,23.10
2023-01-25T23:36:19.591Z,26.27
2023-01-25T23:38:47.847Z,26.47
2023-01-25T23:41:16.093Z,30.10
2023-01-25T23:43:44.466Z,28.40
2023-01-25T23:46:13.488Z,25.10
2023-01-25T23:48:40.829Z,27.47
2023-01-25T23:51:10.247Z,29.23
2023-01-25T23:53:38.376Z,27.83
2023-01-25T23:56:07.653Z,29.70
2023-01-25T23:58:36.171Z,28.17
